createdAt,value
2019-02-16T00:00:33.714Z,35.01
2019-02-16T00:01:33.704Z,34.91
2019-02-16T00:02:33.716Z,35.01
2019-02-16T00:03:33.684Z,35.01
2019-02-16T00:04:33.697Z,35.01
2019-02-16T00:05:33.662Z,34.91
2019-02-16T00:06:33.649Z,34.91
2019-02-16T00:07:33.669Z,35.01
2019-02-16T00:08:33.628Z,35.21
2019-02-16T00:09:33.618Z,35.11
2019-02-16T00:10:33.604Z,35.11
2019-02-16T00:11:33.593Z,35.01
2019-02-16T00:12:33.598Z,35.21
2019-02-16T00:13:33.571Z,35.01
2019-02-16T00:14:33.563Z,35.01
2019-02-16T00:15:33.551Z,35.41
2019-02-16T00:16:33.538Z,34.91
2019-02-16T00:17:33.577Z,35.01
2019-02-16T00:18:33.520Z,34.91
2019-02-16T00:19:33.509Z,35.31
2019-02-16T00:20:33.506Z,35.01
2019-02-16T00:21:33.487Z,35.01
2019-02-16T00:22:33.475Z,35.31
2019-02-16T00:23:33.475Z,35.11
2019-02-16T00:24:33.451Z,35.11
2019-02-16T00:25:33.443Z,35.21
2019-02-16T00:26:33.432Z,34.91
2019-02-16T00:27:33.421Z,35.01
2019-02-16T00:28:33.422Z,35.01
2019-02-16T00:29:33.397Z,34.91
2019-02-16T00:30:33.403Z,35.21
2019-02-16T00:31:33.374Z,35.11
2019-02-16T00:32:33.365Z,35.01
2019-02-16T00:33:33.368Z,35.11
2019-02-16T00:34:33.343Z,35.21
2019-02-16T00:35:33.329Z,35.03
2019-02-16T00:36:33.321Z,35.11
2019-02-16T00:37:33.314Z,35.11
2019-02-16T00:38:33.310Z,35.31
2019-02-16T00:39:33.292Z,35.21
2019-02-16T00:40:33.276Z,35.50
2019-02-16T00:41:33.265Z,35.01
2019-02-16T00:42:33.254Z,35.01
2019-02-16T00:43:33.281Z,35.22
2019-02-16T00:44:33.236Z,35.33
2019-02-16T00:45:33.223Z,35.11
2019-02-16T00:46:33.210Z,35.41
2019-02-16T00:47:33.201Z,34.81
2019-02-16T00:48:33.199Z,35.01
2019-02-16T00:49:33.176Z,35.31
2019-02-16T00:50:33.165Z,35.13
2019-02-16T00:51:33.158Z,35.21
2019-02-16T00:52:33.142Z,34.91
2019-02-16T00:53:33.164Z,34.81
2019-02-16T00:54:33.122Z,35.21
2019-02-16T00:55:33.110Z,35.01
2019-02-16T00:56:33.102Z,34.91
2019-02-16T00:57:33.088Z,35.01
2019-02-16T00:58:33.091Z,35.11
2019-02-16T00:59:33.067Z,34.91
2019-02-16T01:00:33.056Z,35.01
2019-02-16T01:01:33.050Z,35.01
2019-02-16T01:02:33.036Z,35.31
2019-02-16T01:03:33.066Z,35.21
2019-02-16T01:04:33.011Z,35.31
2019-02-16T01:05:33.001Z,35.33
2019-02-16T01:06:32.989Z,35.01
2019-02-16T01:07:32.991Z,35.21
2019-02-16T01:08:32.978Z,35.01
2019-02-16T01:09:32.959Z,35.21
2019-02-16T01:10:32.946Z,35.01
2019-02-16T01:11:32.934Z,35.21
2019-02-16T01:12:32.928Z,34.91
2019-02-16T01:13:32.972Z,35.11
2019-02-16T01:14:32.900Z,35.01
2019-02-16T01:15:32.891Z,35.11
2019-02-16T01:16:32.891Z,35.01
2019-02-16T01:17:32.871Z,35.11
2019-02-16T01:18:32.858Z,35.21
2019-02-16T01:19:32.867Z,34.91
2019-02-16T01:20:32.835Z,35.21
2019-02-16T01:21:32.825Z,34.91
2019-02-16T01:22:32.815Z,35.11
2019-02-16T01:23:32.801Z,35.31
2019-02-16T01:24:32.804Z,35.03
2019-02-16T01:25:32.783Z,35.33
2019-02-16T01:26:32.774Z,35.11
2019-02-16T01:27:32.758Z,35.11
2019-02-16T01:28:32.746Z,34.91
2019-02-16T01:29:32.748Z,35.31
2019-02-16T01:30:32.728Z,35.31
2019-02-16T01:31:32.725Z,35.11
2019-02-16T01:32:32.703Z,35.11
2019-02-16T01:33:32.691Z,35.01
2019-02-16T01:34:32.706Z,35.11
2019-02-16T01:35:32.690Z,34.91
2019-02-16T01:36:32.661Z,35.11
2019-02-16T01:37:32.681Z,35.01
2019-02-16T01:38:32.638Z,35.11
2019-02-16T01:39:32.637Z,35.11
2019-02-16T01:40:32.625Z,35.01
2019-02-16T01:41:32.608Z,35.31
2019-02-16T01:42:32.597Z,35.11
2019-02-16T01:43:32.582Z,35.31
2019-02-16T01:44:32.583Z,35.31
2019-02-16T01:45:32.563Z,35.01
2019-02-16T01:46:32.549Z,35.11
2019-02-16T01:47:32.542Z,35.11
2019-02-16T01:48:32.548Z,35.01
2019-02-16T01:49:32.527Z,35.21
2019-02-16T01:50:32.505Z,35.01
2019-02-16T01:51:32.500Z,35.11
2019-02-16T01:52:32.491Z,35.31
2019-02-16T01:53:32.476Z,35.31
2019-02-16T01:54:32.477Z,35.33
2019-02-16T01:55:32.451Z,35.21
2019-02-16T01:56:32.439Z,35.11
2019-02-16T01:57:32.431Z,35.31
2019-02-16T01:58:32.440Z,35.11
2019-02-16T01:59:32.421Z,35.11
2019-02-16T02:00:32.396Z,35.11
2019-02-16T02:01:32.386Z,35.11
2019-02-16T02:02:32.375Z,35.31
2019-02-16T02:03:32.369Z,35.11
2019-02-16T02:04:32.372Z,35.21
2019-02-16T02:05:32.340Z,35.11
2019-02-16T02:06:32.329Z,35.01
2019-02-16T02:07:32.318Z,35.11
2019-02-16T02:08:32.306Z,35.11
2019-02-16T02:09:32.313Z,35.31
2019-02-16T02:10:32.288Z,35.31
2019-02-16T02:11:32.293Z,35.31
2019-02-16T02:12:32.264Z,35.01
2019-02-16T02:13:32.254Z,35.11
2019-02-16T02:14:32.257Z,35.31
2019-02-16T02:15:32.232Z,35.11
2019-02-16T02:16:32.223Z,35.13
2019-02-16T02:17:32.210Z,35.11
2019-02-16T02:18:32.199Z,35.01
2019-02-16T02:19:32.200Z,35.11
2019-02-16T02:20:32.178Z,35.03
2019-02-16T02:21:40.651Z,35.31
2019-02-16T02:22:33.156Z,35.11
2019-02-16T02:23:32.146Z,35.31
2019-02-16T02:24:32.144Z,35.33
2019-02-16T02:25:32.121Z,35.21
2019-02-16T02:26:32.116Z,35.11
2019-02-16T02:27:32.129Z,35.33
2019-02-16T02:28:32.088Z,35.11
2019-02-16T02:29:32.090Z,35.01
2019-02-16T02:30:32.067Z,35.01
2019-02-16T02:31:32.056Z,35.01
2019-02-16T02:32:32.048Z,35.21
2019-02-16T02:33:32.055Z,35.11
2019-02-16T02:34:32.073Z,35.11
2019-02-16T02:35:32.013Z,35.31
2019-02-16T02:36:32.002Z,35.31
2019-02-16T02:37:31.993Z,35.13
2019-02-16T02:38:31.987Z,35.13
2019-02-16T02:39:31.980Z,35.03
2019-02-16T02:40:31.972Z,35.01
2019-02-16T02:41:31.946Z,35.03
2019-02-16T02:42:31.937Z,35.11
2019-02-16T02:43:31.928Z,35.13
2019-02-16T02:44:31.930Z,35.11
2019-02-16T02:45:31.915Z,35.01
2019-02-16T02:46:31.894Z,35.11
2019-02-16T02:47:31.885Z,35.33
2019-02-16T02:48:31.870Z,35.11
2019-02-16T02:49:31.872Z,35.13
2019-02-16T02:50:31.868Z,35.03
2019-02-16T02:51:31.844Z,35.13
2019-02-16T02:52:31.831Z,35.13
2019-02-16T02:53:31.955Z,35.03
2019-02-16T02:54:31.804Z,35.03
2019-02-16T02:55:31.807Z,35.11
2019-02-16T02:56:31.788Z,35.22
2019-02-16T02:57:31.776Z,35.13
2019-02-16T02:58:31.773Z,35.03
2019-02-16T02:59:31.750Z,34.92
2019-02-16T03:00:31.749Z,35.22
2019-02-16T03:01:31.728Z,35.31
2019-02-16T03:02:31.719Z,35.13
2019-02-16T03:03:31.721Z,35.03
2019-02-16T03:04:31.699Z,35.11
2019-02-16T03:05:31.694Z,35.33
2019-02-16T03:06:31.674Z,35.13
2019-02-16T03:07:31.680Z,35.33
2019-02-16T03:08:31.650Z,35.13
2019-02-16T03:09:31.640Z,35.33
2019-02-16T03:10:31.644Z,35.13
2019-02-16T03:11:31.618Z,35.13
2019-02-16T03:12:31.607Z,35.13
2019-02-16T03:13:31.604Z,35.01
2019-02-16T03:14:31.597Z,35.13
2019-02-16T03:15:31.585Z,35.33
2019-02-16T03:16:31.563Z,34.92
2019-02-16T03:17:31.551Z,35.11
2019-02-16T03:18:31.624Z,35.33
2019-02-16T03:19:31.535Z,35.13
2019-02-16T03:20:31.547Z,35.13
2019-02-16T03:21:31.510Z,35.33
2019-02-16T03:22:31.496Z,35.01
2019-02-16T03:23:31.486Z,35.11
2019-02-16T03:24:31.507Z,35.03
2019-02-16T03:25:31.481Z,35.42
2019-02-16T03:26:31.461Z,35.03
2019-02-16T03:27:31.447Z,35.03
2019-02-16T03:28:38.449Z,35.33
2019-02-16T03:29:31.429Z,35.01
2019-02-16T03:30:38.448Z,34.92
2019-02-16T03:31:31.402Z,35.01
2019-02-16T03:32:31.390Z,35.22
2019-02-16T03:33:31.381Z,35.13
2019-02-16T03:34:31.365Z,35.33
2019-02-16T03:35:31.357Z,35.33
2019-02-16T03:36:31.357Z,35.13
2019-02-16T03:37:31.332Z,35.03
2019-02-16T03:38:31.322Z,35.13
2019-02-16T03:39:31.311Z,35.33
2019-02-16T03:40:31.299Z,35.13
2019-02-16T03:41:31.319Z,35.13
2019-02-16T03:42:31.286Z,35.13
2019-02-16T03:43:31.272Z,35.13
2019-02-16T03:44:31.255Z,35.13
2019-02-16T03:45:31.245Z,35.13
2019-02-16T03:46:31.249Z,35.13
2019-02-16T03:47:31.227Z,35.03
2019-02-16T03:48:31.213Z,35.03
2019-02-16T03:49:31.201Z,35.03
2019-02-16T03:50:31.190Z,35.22
2019-02-16T03:51:31.189Z,35.03
2019-02-16T03:52:31.175Z,35.13
2019-02-16T03:53:31.179Z,35.03
2019-02-16T03:54:31.147Z,35.03
2019-02-16T03:55:31.139Z,35.13
2019-02-16T03:56:31.137Z,35.13
2019-02-16T03:57:31.118Z,35.13
2019-02-16T03:58:31.104Z,35.13
2019-02-16T03:59:31.091Z,35.13
2019-02-16T04:00:31.079Z,35.03
2019-02-16T04:01:31.081Z,35.13
2019-02-16T04:02:31.058Z,35.13
2019-02-16T04:03:31.054Z,35.13
2019-02-16T04:04:31.039Z,35.13
2019-02-16T04:05:31.036Z,35.13
2019-02-16T04:06:31.029Z,35.33
2019-02-16T04:07:31.003Z,35.03
2019-02-16T04:08:30.992Z,35.13
2019-02-16T04:09:31.009Z,35.13
2019-02-16T04:10:30.974Z,35.03
2019-02-16T04:11:31.002Z,35.13
2019-02-16T04:12:30.959Z,35.03
2019-02-16T04:13:30.938Z,35.22
2019-02-16T04:14:30.929Z,35.13
2019-02-16T04:15:30.917Z,35.13
2019-02-16T04:16:30.920Z,35.03
2019-02-16T04:17:30.908Z,35.33
2019-02-16T04:18:30.882Z,35.03
2019-02-16T04:19:30.871Z,35.13
2019-02-16T04:20:30.860Z,34.83
2019-02-16T04:21:30.868Z,35.13
2019-02-16T04:22:30.852Z,35.13
2019-02-16T04:23:30.829Z,35.03
2019-02-16T04:24:30.831Z,35.33
2019-02-16T04:25:30.814Z,35.13
2019-02-16T04:26:30.827Z,35.03
2019-02-16T04:27:30.798Z,35.63
2019-02-16T04:28:30.786Z,35.03
2019-02-16T04:29:30.764Z,35.33
2019-02-16T04:30:30.751Z,35.33
2019-02-16T04:31:30.743Z,35.33
2019-02-16T04:32:30.745Z,35.13
2019-02-16T04:33:30.719Z,35.03
2019-02-16T04:34:30.715Z,35.03
2019-02-16T04:35:30.697Z,35.13
2019-02-16T04:36:30.686Z,35.03
2019-02-16T04:37:30.686Z,35.13
2019-02-16T04:38:30.669Z,35.52
2019-02-16T04:39:30.681Z,35.13
2019-02-16T04:40:30.642Z,35.33
2019-02-16T04:41:30.633Z,35.03
2019-02-16T04:42:30.633Z,35.13
2019-02-16T04:43:30.611Z,35.03
2019-02-16T04:44:30.605Z,35.13
2019-02-16T04:45:30.591Z,35.03
2019-02-16T04:46:30.579Z,35.03
2019-02-16T04:47:30.578Z,35.03
2019-02-16T04:48:30.559Z,35.03
2019-02-16T04:49:30.563Z,35.13
2019-02-16T04:50:30.565Z,35.13
2019-02-16T04:51:30.525Z,35.13
2019-02-16T04:52:34.941Z,35.22
2019-02-16T04:53:30.498Z,35.03
2019-02-16T04:54:30.497Z,35.13
2019-02-16T04:55:30.480Z,35.13
2019-02-16T04:56:30.471Z,35.03
2019-02-16T04:57:30.473Z,35.03
2019-02-16T04:58:30.471Z,35.33
2019-02-16T04:59:30.434Z,35.13
2019-02-16T05:00:30.423Z,35.42
2019-02-16T05:01:30.417Z,35.03
2019-02-16T05:02:30.457Z,35.13
2019-02-16T05:03:30.393Z,35.03
2019-02-16T05:04:30.379Z,35.33
2019-02-16T05:05:30.370Z,35.13
2019-02-16T05:06:30.357Z,35.33
2019-02-16T05:07:30.362Z,35.22
2019-02-16T05:08:30.338Z,35.03
2019-02-16T05:09:30.324Z,35.13
2019-02-16T05:10:30.312Z,35.13
2019-02-16T05:11:30.304Z,35.03
2019-02-16T05:12:30.320Z,35.13
2019-02-16T05:13:30.279Z,35.03
2019-02-16T05:14:30.280Z,35.13
2019-02-16T05:15:30.257Z,35.03
2019-02-16T05:16:30.249Z,35.22
2019-02-16T05:17:30.248Z,35.13
2019-02-16T05:18:30.231Z,35.13
2019-02-16T05:19:30.213Z,35.03
2019-02-16T05:20:30.204Z,35.13
2019-02-16T05:21:30.192Z,35.03
2019-02-16T05:22:30.205Z,35.13
2019-02-16T05:23:30.176Z,35.13
2019-02-16T05:24:30.159Z,35.13
2019-02-16T05:25:30.159Z,35.13
2019-02-16T05:26:30.138Z,35.13
2019-02-16T05:27:30.392Z,35.03
2019-02-16T05:28:30.122Z,35.13
2019-02-16T05:29:30.108Z,35.03
2019-02-16T05:30:30.094Z,35.13
2019-02-16T05:31:30.145Z,35.13
2019-02-16T05:32:30.084Z,35.03
2019-02-16T05:33:30.062Z,35.13
2019-02-16T05:34:30.065Z,35.03
2019-02-16T05:35:30.061Z,35.33
2019-02-16T05:36:30.029Z,35.13
2019-02-16T05:37:30.611Z,35.52
2019-02-16T05:38:30.026Z,35.33
2019-02-16T05:39:29.995Z,35.03
2019-02-16T05:40:29.986Z,35.03
2019-02-16T05:41:29.972Z,35.13
2019-02-16T05:42:29.976Z,35.13
2019-02-16T05:43:29.963Z,35.13
2019-02-16T05:44:29.940Z,35.13
2019-02-16T05:45:29.931Z,35.03
2019-02-16T05:46:29.918Z,35.05
2019-02-16T05:47:29.907Z,35.13
2019-02-16T05:48:29.921Z,35.03
2019-02-16T05:49:29.902Z,35.13
2019-02-16T05:50:29.875Z,35.33
2019-02-16T05:51:29.863Z,35.13
2019-02-16T05:52:29.853Z,35.13
2019-02-16T05:53:29.857Z,35.33
2019-02-16T05:54:29.830Z,35.42
2019-02-16T05:55:29.819Z,35.03
2019-02-16T05:56:29.807Z,35.13
2019-02-16T05:57:29.798Z,35.13
2019-02-16T05:58:29.821Z,35.13
2019-02-16T05:59:29.788Z,35.13
2019-02-16T06:00:29.782Z,35.33
2019-02-16T06:01:29.754Z,35.13
2019-02-16T06:02:29.742Z,35.33
2019-02-16T06:03:29.745Z,35.13
2019-02-16T06:04:29.738Z,35.13
2019-02-16T06:05:29.710Z,35.13
2019-02-16T06:06:29.698Z,35.33
2019-02-16T06:07:29.692Z,35.13
2019-02-16T06:08:29.688Z,35.33
2019-02-16T06:09:29.671Z,35.13
2019-02-16T06:10:29.655Z,35.03
2019-02-16T06:11:29.656Z,35.13
2019-02-16T06:12:29.635Z,35.33
2019-02-16T06:13:29.637Z,35.13
2019-02-16T06:14:29.610Z,35.03
2019-02-16T06:15:29.599Z,35.13
2019-02-16T06:16:29.589Z,35.13
2019-02-16T06:17:29.582Z,35.03
2019-02-16T06:18:29.583Z,35.13
2019-02-16T06:19:29.555Z,35.03
2019-02-16T06:20:29.546Z,35.13
2019-02-16T06:21:29.552Z,35.13
2019-02-16T06:22:29.523Z,35.13
2019-02-16T06:23:29.526Z,35.03
2019-02-16T06:24:29.504Z,35.13
2019-02-16T06:25:29.492Z,35.33
2019-02-16T06:26:29.480Z,35.13
2019-02-16T06:27:29.468Z,35.13
2019-02-16T06:28:29.478Z,35.13
2019-02-16T06:29:29.448Z,35.13
2019-02-16T06:30:29.435Z,35.13
2019-02-16T06:31:29.425Z,35.13
2019-02-16T06:32:29.416Z,35.03
2019-02-16T06:33:29.416Z,35.03
2019-02-16T06:34:29.396Z,35.13
2019-02-16T06:35:29.386Z,35.03
2019-02-16T06:36:29.371Z,35.03
2019-02-16T06:37:29.361Z,35.03
2019-02-16T06:38:29.421Z,35.33
2019-02-16T06:39:29.336Z,35.13
2019-02-16T06:40:29.326Z,35.03
2019-02-16T06:41:29.317Z,35.13
2019-02-16T06:42:29.306Z,35.13
2019-02-16T06:43:29.364Z,35.13
2019-02-16T06:44:29.308Z,35.03
2019-02-16T06:45:29.271Z,35.33
2019-02-16T06:46:29.263Z,35.34
2019-02-16T06:47:29.264Z,35.33
2019-02-16T06:48:29.255Z,35.13
2019-02-16T06:49:29.228Z,35.13
2019-02-16T06:50:36.768Z,35.13
2019-02-16T06:51:30.205Z,35.34
2019-02-16T06:52:29.210Z,35.13
2019-02-16T06:53:29.212Z,35.44
2019-02-16T06:54:29.173Z,35.24
2019-02-16T06:55:29.162Z,35.22
2019-02-16T06:56:29.192Z,35.33
2019-02-16T06:57:29.150Z,35.13
2019-02-16T06:58:29.286Z,35.13
2019-02-16T06:59:29.119Z,35.33
2019-02-16T07:00:29.110Z,35.03
2019-02-16T07:01:29.096Z,35.13
2019-02-16T07:02:29.086Z,35.33
2019-02-16T07:03:29.110Z,35.13
2019-02-16T07:04:29.063Z,35.42
2019-02-16T07:05:29.052Z,35.13
2019-02-16T07:06:29.040Z,35.14
2019-02-16T07:07:29.047Z,35.13
2019-02-16T07:08:29.025Z,35.13
2019-02-16T07:09:29.026Z,35.33
2019-02-16T07:10:28.999Z,35.33
2019-02-16T07:11:28.989Z,35.13
2019-02-16T07:12:28.977Z,35.22
2019-02-16T07:13:28.965Z,35.22
2019-02-16T07:14:28.990Z,35.22
2019-02-16T07:15:28.945Z,35.33
2019-02-16T07:16:28.968Z,35.14
2019-02-16T07:17:28.981Z,35.13
2019-02-16T07:18:28.927Z,35.13
2019-02-16T07:19:28.914Z,35.33
2019-02-16T07:20:29.004Z,35.13
2019-02-16T07:21:28.877Z,35.33
2019-02-16T07:22:28.867Z,35.34
2019-02-16T07:23:28.856Z,35.22
2019-02-16T07:24:28.857Z,35.03
2019-02-16T07:25:28.832Z,35.22
2019-02-16T07:26:28.825Z,35.13
2019-02-16T07:27:28.815Z,35.13
2019-02-16T07:28:28.799Z,35.03
2019-02-16T07:29:28.808Z,35.33
2019-02-16T07:30:28.795Z,35.03
2019-02-16T07:31:28.772Z,35.13
2019-02-16T07:32:28.776Z,35.13
2019-02-16T07:33:28.747Z,34.92
2019-02-16T07:34:28.747Z,35.03
2019-02-16T07:35:28.724Z,35.33
2019-02-16T07:36:28.711Z,35.42
2019-02-16T07:37:28.708Z,35.13
2019-02-16T07:38:28.697Z,35.13
2019-02-16T07:39:28.693Z,35.33
2019-02-16T07:40:28.690Z,34.92
2019-02-16T07:41:28.663Z,35.52
2019-02-16T07:42:28.645Z,35.13
2019-02-16T07:43:35.649Z,35.22
2019-02-16T07:44:28.636Z,35.03
2019-02-16T07:45:28.614Z,35.33
2019-02-16T07:46:28.602Z,35.13
2019-02-16T07:47:28.590Z,35.03
2019-02-16T07:48:28.580Z,35.33
2019-02-16T07:49:28.580Z,35.13
2019-02-16T07:50:28.569Z,35.22
2019-02-16T07:51:28.551Z,35.22
2019-02-16T07:52:28.541Z,35.13
2019-02-16T07:53:31.274Z,35.13
2019-02-16T07:54:28.544Z,35.13
2019-02-16T07:55:28.514Z,35.33
2019-02-16T07:56:28.493Z,35.22
2019-02-16T07:57:28.490Z,35.33
2019-02-16T07:58:28.473Z,35.03
2019-02-16T07:59:28.459Z,35.13
2019-02-16T08:00:28.464Z,35.03
2019-02-16T08:01:28.439Z,35.52
2019-02-16T08:02:28.430Z,35.13
2019-02-16T08:03:28.432Z,35.13
2019-02-16T08:04:28.408Z,35.33
2019-02-16T08:05:28.405Z,35.14
2019-02-16T08:06:28.385Z,35.22
2019-02-16T08:07:28.372Z,35.33
2019-02-16T08:08:28.362Z,35.22
2019-02-16T08:09:28.352Z,35.22
2019-02-16T08:10:28.351Z,35.13
2019-02-16T08:11:28.328Z,35.13
2019-02-16T08:12:28.320Z,35.13
2019-02-16T08:13:28.308Z,35.03
2019-02-16T08:14:28.296Z,35.03
2019-02-16T08:15:28.296Z,34.92
2019-02-16T08:16:28.290Z,35.03
2019-02-16T08:17:28.270Z,34.92
2019-02-16T08:18:28.252Z,35.13
2019-02-16T08:19:28.240Z,35.03
2019-02-16T08:20:28.253Z,34.83
2019-02-16T08:21:28.218Z,35.03
2019-02-16T08:22:28.270Z,34.53
2019-02-16T08:23:28.197Z,34.71
2019-02-16T08:24:28.188Z,34.83
2019-02-16T08:25:28.188Z,34.73
2019-02-16T08:26:28.183Z,34.73
2019-02-16T08:27:28.153Z,34.73
2019-02-16T08:28:28.141Z,35.03
2019-02-16T08:29:28.131Z,35.22
2019-02-16T08:30:28.132Z,34.71
2019-02-16T08:31:28.118Z,34.73
2019-02-16T08:32:28.098Z,35.11
2019-02-16T08:33:28.088Z,34.73
2019-02-16T08:34:28.078Z,35.13
2019-02-16T08:35:28.081Z,35.22
2019-02-16T08:36:28.055Z,34.81
2019-02-16T08:37:28.043Z,35.11
2019-02-16T08:38:28.047Z,35.13
2019-02-16T08:39:28.023Z,35.21
2019-02-16T08:40:28.033Z,34.61
2019-02-16T08:41:28.000Z,35.22
2019-02-16T08:42:27.989Z,34.61
2019-02-16T08:43:27.985Z,35.13
2019-02-16T08:44:27.966Z,34.31
2019-02-16T08:45:27.970Z,35.03
2019-02-16T08:46:27.945Z,34.63
2019-02-16T08:47:27.939Z,34.31
2019-02-16T08:48:27.923Z,34.83
2019-02-16T08:49:27.925Z,35.01
2019-02-16T08:50:29.519Z,35.21
2019-02-16T08:51:27.888Z,34.52
2019-02-16T08:52:27.879Z,34.43
2019-02-16T08:53:27.867Z,34.91
2019-02-16T08:54:27.856Z,34.52
2019-02-16T08:55:27.879Z,34.61
2019-02-16T08:56:27.842Z,34.53
2019-02-16T08:57:27.823Z,34.43
2019-02-16T08:58:27.812Z,34.41
2019-02-16T08:59:27.884Z,35.01
2019-02-16T09:00:27.790Z,35.21
2019-02-16T09:01:27.791Z,34.43
2019-02-16T09:02:27.774Z,34.52
2019-02-16T09:03:27.761Z,34.31
2019-02-16T09:04:27.752Z,35.21
2019-02-16T09:05:27.740Z,34.31
2019-02-16T09:06:27.737Z,35.22
2019-02-16T09:07:27.714Z,34.33
2019-02-16T09:08:27.704Z,34.91
2019-02-16T09:09:27.693Z,35.01
2019-02-16T09:10:27.684Z,35.11
2019-02-16T09:11:27.681Z,35.21
2019-02-16T09:12:27.670Z,34.23
2019-02-16T09:13:27.647Z,34.61
2019-02-16T09:14:27.640Z,34.61
2019-02-16T09:15:27.630Z,34.23
2019-02-16T09:16:27.626Z,35.11
2019-02-16T09:17:27.606Z,34.22
2019-02-16T09:18:27.593Z,35.11
2019-02-16T09:19:27.584Z,34.41
2019-02-16T09:20:27.628Z,34.52
2019-02-16T09:21:27.578Z,34.33
2019-02-16T09:22:27.550Z,34.63
2019-02-16T09:23:27.538Z,34.22
2019-02-16T09:24:27.527Z,34.53
2019-02-16T09:25:27.519Z,35.21
2019-02-16T09:26:27.521Z,34.61
2019-02-16T09:27:27.499Z,34.31
2019-02-16T09:28:27.506Z,34.61
2019-02-16T09:29:27.471Z,34.61
2019-02-16T09:30:27.461Z,34.43
2019-02-16T09:31:27.463Z,34.52
2019-02-16T09:32:27.439Z,34.31
2019-02-16T09:33:27.447Z,34.31
2019-02-16T09:34:27.416Z,34.61
2019-02-16T09:35:27.420Z,34.41
2019-02-16T09:36:27.413Z,34.61
2019-02-16T09:37:28.832Z,34.61
2019-02-16T09:38:27.374Z,34.52
2019-02-16T09:39:27.377Z,34.43
2019-02-16T09:40:27.351Z,34.53
2019-02-16T09:41:27.407Z,34.52
2019-02-16T09:42:27.330Z,34.41
2019-02-16T09:43:27.322Z,34.43
2019-02-16T09:44:27.311Z,34.53
2019-02-16T09:45:27.297Z,34.81
2019-02-16T09:46:27.298Z,34.61
2019-02-16T09:47:27.275Z,34.63
2019-02-16T09:48:27.265Z,34.71
2019-02-16T09:49:27.253Z,34.52
2019-02-16T09:50:28.225Z,34.81
2019-02-16T09:51:27.259Z,34.63
2019-02-16T09:52:27.220Z,34.52
2019-02-16T09:53:27.210Z,34.63
2019-02-16T09:54:27.212Z,34.81
2019-02-16T09:55:27.187Z,34.83
2019-02-16T09:56:27.193Z,34.53
2019-02-16T09:57:27.164Z,34.52
2019-02-16T09:58:27.170Z,34.61
2019-02-16T09:59:27.142Z,34.61
2019-02-16T10:00:27.133Z,34.52
2019-02-16T10:01:27.133Z,34.63
2019-02-16T10:02:27.109Z,34.61
2019-02-16T10:03:27.100Z,34.53
2019-02-16T10:04:27.087Z,34.41
2019-02-16T10:05:27.076Z,34.52
2019-02-16T10:06:27.104Z,34.31
2019-02-16T10:07:27.059Z,34.52
2019-02-16T10:08:27.063Z,34.61
2019-02-16T10:09:27.032Z,34.33
2019-02-16T10:10:27.022Z,34.61
2019-02-16T10:11:27.011Z,34.41
2019-02-16T10:12:27.011Z,34.61
2019-02-16T10:13:27.001Z,34.61
2019-02-16T10:14:26.981Z,34.61
2019-02-16T10:15:26.967Z,34.61
2019-02-16T10:16:26.955Z,34.71
2019-02-16T10:17:26.959Z,34.61
2019-02-16T10:18:26.935Z,34.71
2019-02-16T10:19:26.936Z,34.61
2019-02-16T10:20:26.926Z,34.71
2019-02-16T10:21:26.914Z,34.71
2019-02-16T10:22:26.902Z,34.61
2019-02-16T10:23:26.879Z,34.81
2019-02-16T10:24:26.870Z,34.81
2019-02-16T10:25:26.873Z,34.61
2019-02-16T10:26:26.845Z,34.61
2019-02-16T10:27:26.846Z,34.71
2019-02-16T10:28:26.826Z,34.81
2019-02-16T10:29:26.821Z,34.71
2019-02-16T10:30:26.810Z,34.61
2019-02-16T10:31:26.808Z,34.81
2019-02-16T10:32:26.792Z,34.71
2019-02-16T10:33:26.769Z,34.59
2019-02-16T10:34:26.757Z,35.21
2019-02-16T10:35:26.746Z,34.61
2019-02-16T10:36:26.747Z,34.59
2019-02-16T10:37:26.747Z,34.99
2019-02-16T10:38:26.712Z,35.21
2019-02-16T10:39:26.705Z,34.91
2019-02-16T10:40:26.692Z,34.69
2019-02-16T10:41:26.683Z,34.80
2019-02-16T10:42:26.685Z,34.59
2019-02-16T10:43:26.658Z,34.99
2019-02-16T10:44:26.659Z,34.80
2019-02-16T10:45:26.637Z,34.68
2019-02-16T10:46:26.652Z,34.98
2019-02-16T10:47:26.962Z,34.28
2019-02-16T10:48:26.606Z,33.67
2019-02-16T10:49:26.591Z,33.97
2019-02-16T10:50:26.579Z,33.76
2019-02-16T10:51:26.571Z,34.27
2019-02-16T10:52:26.571Z,34.66
2019-02-16T10:53:26.547Z,35.06
2019-02-16T10:54:29.067Z,34.76
2019-02-16T10:55:26.530Z,34.56
2019-02-16T10:56:26.514Z,34.56
2019-02-16T10:57:26.516Z,35.08
2019-02-16T10:58:26.492Z,34.68
2019-02-16T10:59:26.487Z,34.66
2019-02-16T11:00:26.469Z,34.66
2019-02-16T11:01:26.463Z,34.56
2019-02-16T11:02:26.459Z,34.76
2019-02-16T11:03:26.439Z,34.66
2019-02-16T11:04:26.426Z,35.06
2019-02-16T11:05:26.416Z,34.88
2019-02-16T11:06:26.405Z,34.76
2019-02-16T11:07:26.425Z,34.48
2019-02-16T11:08:26.385Z,34.58
2019-02-16T11:09:26.404Z,34.88
2019-02-16T11:10:26.361Z,34.48
2019-02-16T11:11:26.349Z,34.78
2019-02-16T11:12:26.395Z,34.78
2019-02-16T11:13:26.327Z,34.48
2019-02-16T11:14:26.317Z,34.68
2019-02-16T11:15:26.308Z,34.78
2019-02-16T11:16:26.297Z,34.48
2019-02-16T11:17:26.303Z,34.66
2019-02-16T11:18:26.287Z,35.06
2019-02-16T11:19:26.261Z,34.58
2019-02-16T11:20:26.250Z,34.78
2019-02-16T11:21:26.238Z,35.08
2019-02-16T11:22:26.230Z,35.08
2019-02-16T11:23:26.229Z,34.68
2019-02-16T11:24:26.216Z,34.68
2019-02-16T11:25:26.197Z,34.68
2019-02-16T11:26:26.187Z,34.58
2019-02-16T11:27:26.173Z,34.78
2019-02-16T11:28:26.174Z,34.58
2019-02-16T11:29:26.165Z,34.58
2019-02-16T11:30:26.150Z,34.78
2019-02-16T11:31:26.127Z,34.78
2019-02-16T11:32:26.128Z,34.48
2019-02-16T11:33:26.117Z,34.48
2019-02-16T11:34:26.097Z,34.48
2019-02-16T11:35:26.084Z,34.58
2019-02-16T11:36:26.073Z,34.48
2019-02-16T11:37:26.063Z,34.58
2019-02-16T11:38:26.074Z,34.58
2019-02-16T11:39:26.039Z,34.58
2019-02-16T11:40:26.029Z,34.98
2019-02-16T11:41:26.063Z,34.88
2019-02-16T11:42:26.006Z,34.58
2019-02-16T11:43:33.022Z,34.48
2019-02-16T11:44:32.997Z,34.68
2019-02-16T11:45:25.979Z,35.08
2019-02-16T11:46:25.963Z,34.78
2019-02-16T11:47:25.952Z,34.58
2019-02-16T11:48:25.956Z,34.78
2019-02-16T11:49:25.930Z,35.08
2019-02-16T11:50:25.921Z,34.58
2019-02-16T11:51:25.910Z,34.56
2019-02-16T11:52:25.896Z,34.58
2019-02-16T11:53:25.918Z,34.58
2019-02-16T11:54:25.875Z,34.68
2019-02-16T11:55:25.862Z,34.78
2019-02-16T11:56:25.856Z,34.68
2019-02-16T11:57:25.842Z,34.58
2019-02-16T11:58:25.842Z,34.78
2019-02-16T11:59:25.823Z,34.48
2019-02-16T12:00:25.809Z,35.08
2019-02-16T12:01:25.796Z,34.48
2019-02-16T12:02:25.790Z,35.06
2019-02-16T12:03:25.801Z,34.58
2019-02-16T12:04:25.782Z,34.78
2019-02-16T12:05:25.753Z,34.86
2019-02-16T12:06:25.744Z,34.76
2019-02-16T12:07:25.732Z,35.06
2019-02-16T12:08:25.754Z,34.78
2019-02-16T12:09:25.716Z,35.08
2019-02-16T12:10:25.699Z,34.66
2019-02-16T12:11:25.689Z,34.58
2019-02-16T12:12:25.677Z,35.06
2019-02-16T12:13:25.667Z,35.06
2019-02-16T12:14:25.673Z,34.78
2019-02-16T12:15:25.646Z,34.78
2019-02-16T12:16:25.642Z,35.06
2019-02-16T12:17:25.621Z,34.36
2019-02-16T12:18:25.609Z,34.76
2019-02-16T12:19:25.613Z,34.66
2019-02-16T12:20:33.472Z,34.76
2019-02-16T12:21:26.579Z,34.76
2019-02-16T12:22:25.568Z,34.76
2019-02-16T12:23:25.556Z,34.66
2019-02-16T12:24:25.556Z,34.76
2019-02-16T12:25:25.538Z,34.56
2019-02-16T12:26:25.547Z,34.46
2019-02-16T12:27:25.511Z,34.86
2019-02-16T12:28:25.502Z,34.66
2019-02-16T12:29:25.509Z,34.36
2019-02-16T12:30:25.481Z,34.76
2019-02-16T12:31:25.468Z,34.76
2019-02-16T12:32:25.455Z,34.66
2019-02-16T12:33:25.444Z,34.96
2019-02-16T12:34:25.453Z,34.66
2019-02-16T12:35:25.425Z,34.66
2019-02-16T12:36:25.442Z,34.36
2019-02-16T12:37:25.400Z,34.66
2019-02-16T12:38:25.388Z,34.96
2019-02-16T12:39:25.412Z,34.96
2019-02-16T12:40:25.372Z,35.06
2019-02-16T12:41:25.358Z,34.66
2019-02-16T12:42:25.355Z,35.06
2019-02-16T12:43:25.333Z,35.06
2019-02-16T12:44:25.335Z,35.06
2019-02-16T12:45:25.312Z,34.76
2019-02-16T12:46:25.301Z,35.06
2019-02-16T12:47:25.292Z,34.76
2019-02-16T12:48:25.283Z,34.96
2019-02-16T12:49:25.328Z,34.96
2019-02-16T12:50:25.259Z,35.06
2019-02-16T12:51:25.250Z,35.06
2019-02-16T12:52:25.238Z,34.96